sensor_id;sensor_type;location;lat;lon;timestamp;temperature;humidity
6954;DHT22;3516;47.980;8.808;2023-03-05T09:37:46;1.10;99.90
6954;DHT22;3516;47.980;8.808;2023-03-05T09:40:15;1.20;99.90
6954;DHT22;3516;47.980;8.808;2023-03-05T09:42:56;1.30;99.90
6954;DHT22;3516;47.980;8.808;2023-03-05T09:45:28;1.30;99.90
6954;DHT22;3516;47.980;8.808;2023-03-05T09:48:04;1.40;99.90
6954;DHT22;3516;47.980;8.808;2023-03-05T09:50:37;1.60;99.90
6954;DHT22;3516;47.980;8.808;2023-03-05T09:53:12;1.60;99.90
6954;DHT22;3516;47.980;8.808;2023-03-05T09:55:43;1.80;99.90
6954;DHT22;3516;47.980;8.808;2023-03-05T09:58:14;1.90;99.90
6954;DHT22;3516;47.980;8.808;2023-03-05T10:00:43;1.90;99.90
6954;DHT22;3516;47.980;8.808;2023-03-05T10:03:17;2.00;99.90
6954;DHT22;3516;47.980;8.808;2023-03-05T10:05:53;2.10;99.90
6954;DHT22;3516;47.980;8.808;2023-03-05T10:08:23;2.20;99.90
6954;DHT22;3516;47.980;8.808;2023-03-05T10:10:55;2.20;99.90
6954;DHT22;3516;47.980;8.808;2023-03-05T10:13:25;2.30;99.90
6954;DHT22;3516;47.980;8.808;2023-03-05T10:15:59;2.40;99.90
6954;DHT22;3516;47.980;8.808;2023-03-05T10:18:34;2.50;99.90
6954;DHT22;3516;47.980;8.808;2023-03-05T10:21:04;2.60;99.90
6954;DHT22;3516;47.980;8.808;2023-03-05T10:23:54;2.70;99.90
6954;DHT22;3516;47.980;8.808;2023-03-05T10:26:35;2.80;99.90
6954;DHT22;3516;47.980;8.808;2023-03-05T10:29:19;2.90;99.90
6954;DHT22;3516;47.980;8.808;2023-03-05T10:31:55;2.90;99.90
6954;DHT22;3516;47.980;8.808;2023-03-05T10:34:50;3.00;99.90
6954;DHT22;3516;47.980;8.808;2023-03-05T10:37:33;3.10;99.90
6954;DHT22;3516;47.980;8.808;2023-03-05T10:40:15;3.20;99.90
6954;DHT22;3516;47.980;8.808;2023-03-05T10:42:49;3.30;99.90
6954;DHT22;3516;47.980;8.808;2023-03-05T10:45:22;3.30;99.90
6954;DHT22;3516;47.980;8.808;2023-03-05T10:47:52;3.30;99.90
6954;DHT22;3516;47.980;8.808;2023-03-05T10:50:24;3.30;99.90
6954;DHT22;3516;47.980;8.808;2023-03-05T10:53:00;3.40;99.90
6954;DHT22;3516;47.980;8.808;2023-03-05T10:55:29;3.50;99.90
6954;DHT22;3516;47.980;8.808;2023-03-05T10:58:00;3.60;99.90
6954;DHT22;3516;47.980;8.808;2023-03-05T11:00:27;3.70;99.90
6954;DHT22;3516;47.980;8.808;2023-03-05T11:02:57;3.80;99.90
6954;DHT22;3516;47.980;8.808;2023-03-05T11:05:44;3.70;99.90
6954;DHT22;3516;47.980;8.808;2023-03-05T11:08:31;3.70;99.90
6954;DHT22;3516;47.980;8.808;2023-03-05T11:11:11;3.80;99.90
6954;DHT22;3516;47.980;8.808;2023-03-05T11:13:49;3.80;99.90
6954;DHT22;3516;47.980;8.808;2023-03-05T11:16:18;3.80;99.90
6954;DHT22;3516;47.980;8.808;2023-03-05T11:18:45;3.80;99.90
6954;DHT22;3516;47.980;8.808;2023-03-05T11:21:19;3.90;99.90
6954;DHT22;3516;47.980;8.808;2023-03-05T11:24:04;3.90;99.90
6954;DHT22;3516;47.980;8.808;2023-03-05T11:26:31;3.90;99.90
6954;DHT22;3516;47.980;8.808;2023-03-05T11:29:01;3.80;99.90
6954;DHT22;3516;47.980;8.808;2023-03-05T11:31:30;3.80;99.90
6954;DHT22;3516;47.980;8.808;2023-03-05T11:33:59;3.80;99.90
6954;DHT22;3516;47.980;8.808;2023-03-05T11:36:31;3.90;99.90
6954;DHT22;3516;47.980;8.808;2023-03-05T20:21:08;1.20;99.90
6954;DHT22;3516;47.980;8.808;2023-03-05T20:23:35;1.20;99.90
6954;DHT22;3516;47.980;8.808;2023-03-05T20:26:03;1.20;99.90
6954;DHT22;3516;47.980;8.808;2023-03-05T20:28:32;1.20;99.90
6954;DHT22;3516;47.980;8.808;2023-03-05T20:31:00;1.20;99.90
6954;DHT22;3516;47.980;8.808;2023-03-05T20:33:28;1.20;99.90
6954;DHT22;3516;47.980;8.808;2023-03-05T20:35:55;1.20;99.90
6954;DHT22;3516;47.980;8.808;2023-03-05T20:38:24;1.20;99.90
6954;DHT22;3516;47.980;8.808;2023-03-05T20:40:55;1.20;99.90
6954;DHT22;3516;47.980;8.808;2023-03-05T20:43:24;1.20;99.90
6954;DHT22;3516;47.980;8.808;2023-03-05T20:45:51;1.20;99.90
6954;DHT22;3516;47.980;8.808;2023-03-05T20:48:19;1.20;99.90
6954;DHT22;3516;47.980;8.808;2023-03-05T20:50:46;1.10;99.90
6954;DHT22;3516;47.980;8.808;2023-03-05T20:53:13;1.10;99.90
6954;DHT22;3516;47.980;8.808;2023-03-05T20:55:42;1.10;99.90
6954;DHT22;3516;47.980;8.808;2023-03-05T20:58:09;1.10;99.90
6954;DHT22;3516;47.980;8.808;2023-03-05T21:00:36;1.10;99.90
6954;DHT22;3516;47.980;8.808;2023-03-05T21:03:04;1.10;99.90
6954;DHT22;3516;47.980;8.808;2023-03-05T21:05:31;1.10;99.90
6954;DHT22;3516;47.980;8.808;2023-03-05T21:07:59;1.10;99.90
6954;DHT22;3516;47.980;8.808;2023-03-05T21:10:26;1.10;99.90
6954;DHT22;3516;47.980;8.808;2023-03-05T21:12:54;1.10;99.90
6954;DHT22;3516;47.980;8.808;2023-03-05T21:15:24;1.10;99.90
6954;DHT22;3516;47.980;8.808;2023-03-05T21:17:51;1.10;99.90
6954;DHT22;3516;47.980;8.808;2023-03-05T21:20:20;1.10;99.90
6954;DHT22;3516;47.980;8.808;2023-03-05T21:22:47;1.10;99.90
6954;DHT22;3516;47.980;8.808;2023-03-05T21:25:14;1.10;99.90
6954;DHT22;3516;47.980;8.808;2023-03-05T21:27:46;1.10;99.90
6954;DHT22;3516;47.980;8.808;2023-03-05T21:30:15;1.10;99.90
6954;DHT22;3516;47.980;8.808;2023-03-05T21:32:41;1.10;99.90
6954;DHT22;3516;47.980;8.808;2023-03-05T21:35:13;1.10;99.90
6954;DHT22;3516;47.980;8.808;2023-03-05T21:37:40;1.10;99.90
6954;DHT22;3516;47.980;8.808;2023-03-05T21:40:09;1.10;99.90
6954;DHT22;3516;47.980;8.808;2023-03-05T21:42:35;1.10;99.90
6954;DHT22;3516;47.980;8.808;2023-03-05T21:45:03;1.10;99.90
6954;DHT22;3516;47.980;8.808;2023-03-05T21:47:32;1.10;99.90
6954;DHT22;3516;47.980;8.808;2023-03-05T21:49:59;1.10;99.90
6954;DHT22;3516;47.980;8.808;2023-03-05T21:52:26;1.10;99.90
6954;DHT22;3516;47.980;8.808;2023-03-05T21:54:53;1.00;99.90
6954;DHT22;3516;47.980;8.808;2023-03-05T21:57:20;1.00;99.90
6954;DHT22;3516;47.980;8.808;2023-03-05T21:59:47;1.00;99.90
6954;DHT22;3516;47.980;8.808;2023-03-05T22:02:15;1.00;99.90
6954;DHT22;3516;47.980;8.808;2023-03-05T22:04:44;1.00;99.90
6954;DHT22;3516;47.980;8.808;2023-03-05T22:07:11;1.00;99.90
6954;DHT22;3516;47.980;8.808;2023-03-05T22:09:38;1.00;99.90
6954;DHT22;3516;47.980;8.808;2023-03-05T22:12:05;1.00;99.90
6954;DHT22;3516;47.980;8.808;2023-03-05T22:14:34;1.00;99.90
6954;DHT22;3516;47.980;8.808;2023-03-05T22:17:01;0.90;99.90
6954;DHT22;3516;47.980;8.808;2023-03-05T22:19:28;0.90;99.90
6954;DHT22;3516;47.980;8.808;2023-03-05T22:21:56;0.90;99.90
